createdAt,value
2022-10-14T00:01:09.256Z,6.47
2022-10-14T00:03:38.113Z,5.82
2022-10-14T00:06:06.757Z,7.20
2022-10-14T00:08:33.874Z,8.30
2022-10-14T00:11:10.046Z,7.45
2022-10-14T00:13:37.683Z,7.53
2022-10-14T00:16:05.365Z,9.38
2022-10-14T00:18:32.747Z,7.57
2022-10-14T00:21:02.404Z,7.18
2022-10-14T00:23:30.717Z,15.90
2022-10-14T00:25:57.780Z,6.97
2022-10-14T00:28:31.392Z,7.85
2022-10-14T00:31:00.910Z,8.27
2022-10-14T00:35:59.507Z,9.88
2022-10-14T00:38:31.484Z,9.93
2022-10-14T00:40:58.757Z,14.25
2022-10-14T00:43:27.632Z,8.20
2022-10-14T00:45:54.724Z,9.18
2022-10-14T00:48:25.159Z,11.93
2022-10-14T00:50:57.075Z,8.07
2022-10-14T00:55:52.993Z,7.78
2022-10-14T00:58:23.735Z,5.80
2022-10-14T01:00:50.931Z,11.35
2022-10-14T01:03:21.657Z,9.82
2022-10-14T01:06:21.406Z,12.30
2022-10-14T01:12:27.071Z,8.35
2022-10-14T01:15:04.830Z,7.47
2022-10-14T01:17:49.981Z,8.07
2022-10-14T01:20:40.432Z,9.63
2022-10-14T01:23:27.771Z,5.38
2022-10-14T01:26:25.588Z,11.35
2022-10-14T01:29:09.221Z,8.38
2022-10-14T01:31:42.399Z,9.38
2022-10-14T01:34:14.531Z,6.60
2022-10-14T01:36:51.046Z,5.18
2022-10-14T01:39:27.528Z,4.45
2022-10-14T01:42:04.211Z,3.25
2022-10-14T01:44:35.327Z,4.68
2022-10-14T01:47:05.562Z,7.55
2022-10-14T01:49:36.204Z,4.93
2022-10-14T01:52:10.487Z,5.97
2022-10-14T01:54:43.053Z,4.30
2022-10-14T01:57:17.189Z,6.72
2022-10-14T01:59:46.915Z,6.35
2022-10-14T02:02:14.037Z,5.05
2022-10-14T02:04:41.548Z,8.43
2022-10-14T02:07:39.483Z,12.20
2022-10-14T02:10:41.469Z,8.55
2022-10-14T02:13:34.254Z,6.68
2022-10-14T02:16:33.906Z,5.93
2022-10-14T02:19:34.990Z,8.52
2022-10-14T02:22:15.931Z,12.02
2022-10-14T02:24:49.957Z,8.70
2022-10-14T02:27:19.892Z,13.73
2022-10-14T02:29:48.986Z,8.85
2022-10-14T02:32:19.299Z,6.75
2022-10-14T02:34:50.785Z,7.55
2022-10-14T02:37:20.248Z,7.38
2022-10-14T02:40:11.173Z,7.40
2022-10-14T02:42:38.358Z,21.13
2022-10-14T02:45:07.657Z,9.75
2022-10-14T02:47:34.883Z,11.32
2022-10-14T02:50:01.929Z,11.80
2022-10-14T02:52:30.374Z,10.98
2022-10-14T02:54:58.259Z,12.82
2022-10-14T02:57:25.783Z,15.45
2022-10-14T02:59:52.855Z,16.65
2022-10-14T03:02:20.208Z,18.13
2022-10-14T03:04:48.149Z,19.73
2022-10-14T03:07:15.350Z,17.75
2022-10-14T03:09:47.803Z,14.57
2022-10-14T03:12:15.167Z,18.98
2022-10-14T03:14:43.904Z,17.58
2022-10-14T03:17:14.032Z,16.15
2022-10-14T03:19:41.198Z,22.17
2022-10-14T03:22:08.780Z,21.50
2022-10-14T03:27:27.973Z,20.23
2022-10-14T03:30:01.047Z,21.05
2022-10-14T03:32:28.181Z,26.80
2022-10-14T03:40:17.025Z,34.38
2022-10-14T03:42:44.395Z,30.13
2022-10-14T03:45:11.561Z,28.88
2022-10-14T03:47:40.194Z,26.47
2022-10-14T03:50:07.433Z,28.00
2022-10-14T03:52:44.879Z,30.25
2022-10-14T03:55:21.477Z,30.10
2022-10-14T04:00:18.940Z,36.30
2022-10-14T04:02:51.956Z,39.08
2022-10-14T04:05:34.774Z,30.63
2022-10-14T04:08:08.463Z,29.17
2022-10-14T04:10:36.895Z,24.83
2022-10-14T04:13:04.287Z,25.17
2022-10-14T04:15:36.909Z,29.33
2022-10-14T04:18:17.805Z,23.30
2022-10-14T04:20:45.771Z,21.77
2022-10-14T04:25:45.517Z,19.90
2022-10-14T04:28:14.053Z,17.45
2022-10-14T04:30:53.428Z,15.93
2022-10-14T04:33:26.358Z,15.70
2022-10-14T04:36:01.645Z,13.98
2022-10-14T04:38:35.625Z,18.17
2022-10-14T04:41:06.701Z,18.80
2022-10-14T04:43:36.004Z,19.00
2022-10-14T04:46:18.423Z,20.85
2022-10-14T04:48:47.867Z,15.40
2022-10-14T04:51:15.671Z,19.40
2022-10-14T04:53:53.332Z,18.70
2022-10-14T04:56:39.099Z,25.38
2022-10-14T04:59:06.405Z,25.40
2022-10-14T05:01:53.787Z,23.27
2022-10-14T05:04:21.708Z,23.80
2022-10-14T05:09:19.403Z,24.00
2022-10-14T05:11:46.863Z,27.05
2022-10-14T05:14:17.879Z,28.13
2022-10-14T05:16:48.701Z,22.55
2022-10-14T05:19:21.878Z,22.13
2022-10-14T05:24:26.872Z,21.15
2022-10-14T05:26:54.626Z,21.52
2022-10-14T05:29:21.955Z,19.48
2022-10-14T05:31:51.463Z,16.60
2022-10-14T05:34:41.112Z,18.98
2022-10-14T05:37:11.312Z,17.60
2022-10-14T05:39:46.597Z,14.48
2022-10-14T05:42:18.483Z,18.92
2022-10-14T05:44:45.838Z,16.95
2022-10-14T05:47:14.670Z,19.45
2022-10-14T05:49:44.419Z,18.95
2022-10-14T05:52:12.419Z,22.15
2022-10-14T05:54:39.837Z,18.45
2022-10-14T05:57:08.341Z,17.98
2022-10-14T05:59:35.555Z,22.65
2022-10-14T06:02:02.811Z,17.27
2022-10-14T06:04:30.223Z,18.17
2022-10-14T06:06:58.935Z,20.42
2022-10-14T06:09:26.211Z,22.10
2022-10-14T06:11:53.461Z,23.20
2022-10-14T06:14:20.940Z,17.98
2022-10-14T06:16:51.032Z,17.90
2022-10-14T06:19:18.362Z,23.98
2022-10-14T06:21:45.503Z,22.05
2022-10-14T06:24:12.698Z,22.70
2022-10-14T06:26:40.028Z,17.63
2022-10-14T06:29:07.159Z,22.42
2022-10-14T06:31:34.264Z,16.88
2022-10-14T06:34:05.052Z,17.08
2022-10-14T06:36:32.327Z,14.05
2022-10-14T06:38:59.381Z,22.75
2022-10-14T06:41:26.910Z,18.17
2022-10-14T06:43:54.139Z,15.98
2022-10-14T06:46:21.315Z,14.48
2022-10-14T06:48:50.406Z,13.05
2022-10-14T06:51:17.944Z,8.18
2022-10-14T06:53:45.039Z,11.15
2022-10-14T06:56:12.191Z,6.78
2022-10-14T06:58:39.316Z,6.60
2022-10-14T07:01:07.497Z,6.03
2022-10-14T07:03:36.635Z,10.45
2022-10-14T07:06:05.554Z,10.65
2022-10-14T07:08:32.697Z,14.68
2022-10-14T07:10:59.805Z,13.65
2022-10-14T07:13:27.156Z,9.35
2022-10-14T07:15:54.287Z,10.57
2022-10-14T07:18:21.685Z,11.20
2022-10-14T07:20:49.007Z,9.93
2022-10-14T07:23:16.740Z,10.55
2022-10-14T07:25:44.159Z,9.30
2022-10-14T07:28:11.392Z,10.48
2022-10-14T07:30:38.809Z,5.00
2022-10-14T07:33:05.886Z,6.05
2022-10-14T07:35:32.977Z,6.55
2022-10-14T07:38:00.136Z,5.53
2022-10-14T07:40:27.576Z,5.68
2022-10-14T07:42:54.730Z,5.35
2022-10-14T07:45:21.949Z,10.38
2022-10-14T07:47:50.617Z,7.00
2022-10-14T07:50:18.349Z,5.10
2022-10-14T07:52:45.378Z,5.75
2022-10-14T07:55:12.512Z,6.35
2022-10-14T07:57:39.644Z,5.78
2022-10-14T08:00:07.484Z,4.85
2022-10-14T08:02:40.575Z,10.52
2022-10-14T08:05:33.000Z,4.03
2022-10-14T08:07:56.015Z,4.15
2022-10-14T08:10:23.106Z,4.13
2022-10-14T08:12:51.135Z,2.78
2022-10-14T08:15:18.231Z,2.33
2022-10-14T08:17:45.497Z,2.10
2022-10-14T08:20:12.609Z,2.78
2022-10-14T08:22:39.730Z,1.98
2022-10-14T08:25:07.063Z,1.52
2022-10-14T08:27:34.196Z,1.20
2022-10-14T08:30:01.581Z,1.27
2022-10-14T08:32:28.646Z,3.20
2022-10-14T08:34:55.961Z,0.70
2022-10-14T08:37:23.323Z,1.95
2022-10-14T08:39:50.365Z,0.80
2022-10-14T08:42:30.327Z,0.95
2022-10-14T08:45:15.299Z,0.82
2022-10-14T08:47:46.144Z,2.90
2022-10-14T08:50:30.311Z,1.50
2022-10-14T08:53:02.396Z,0.80
2022-10-14T08:55:35.651Z,1.92
2022-10-14T08:58:18.799Z,1.20
2022-10-14T09:00:49.896Z,0.90
2022-10-14T09:03:37.755Z,2.17
2022-10-14T09:06:33.325Z,1.27
2022-10-14T09:09:05.076Z,0.63
2022-10-14T09:11:40.095Z,0.60
2022-10-14T09:14:11.802Z,0.52
2022-10-14T09:16:40.327Z,0.50
2022-10-14T09:19:32.003Z,1.33
2022-10-14T09:22:01.221Z,4.30
2022-10-14T09:24:35.864Z,1.20
2022-10-14T09:27:05.680Z,0.65
2022-10-14T09:30:02.614Z,1.27
2022-10-14T09:32:35.299Z,2.92
2022-10-14T09:35:03.787Z,0.98
2022-10-14T09:37:36.111Z,0.70
2022-10-14T09:40:06.239Z,2.05
2022-10-14T09:42:48.869Z,1.17
2022-10-14T09:45:24.481Z,1.30
2022-10-14T09:47:56.124Z,0.70
2022-10-14T09:50:39.240Z,0.70
2022-10-14T09:53:17.255Z,1.33
2022-10-14T09:55:49.786Z,0.75
2022-10-14T09:58:22.327Z,0.85
2022-10-14T10:00:56.934Z,1.35
2022-10-14T10:03:32.425Z,0.85
2022-10-14T10:06:12.545Z,1.13
2022-10-14T10:09:07.347Z,3.10
2022-10-14T10:11:39.075Z,0.88
2022-10-14T10:14:26.035Z,0.93
2022-10-14T10:17:08.305Z,0.60
2022-10-14T10:19:43.031Z,0.80
2022-10-14T10:25:12.231Z,1.77
2022-10-14T10:27:47.840Z,6.43
2022-10-14T10:30:14.901Z,0.50
2022-10-14T10:32:46.239Z,1.55
2022-10-14T10:35:52.021Z,0.73
2022-10-14T10:38:30.887Z,2.35
2022-10-14T10:41:13.602Z,0.40
2022-10-14T10:43:57.288Z,0.45
2022-10-14T10:46:27.297Z,0.50
2022-10-14T10:49:25.261Z,0.40
2022-10-14T10:52:20.350Z,0.38
2022-10-14T10:55:00.497Z,0.40
2022-10-14T10:57:34.466Z,0.40
2022-10-14T11:00:07.721Z,0.30
2022-10-14T11:02:40.678Z,0.60
2022-10-14T11:05:18.033Z,0.38
2022-10-14T11:08:18.101Z,0.43
2022-10-14T11:11:39.276Z,0.40
2022-10-14T11:14:20.624Z,0.65
2022-10-14T11:17:06.796Z,9.90
2022-10-14T11:19:57.307Z,10.00
2022-10-14T11:23:10.125Z,8.02
2022-10-14T11:25:55.305Z,22.98
2022-10-14T11:28:51.428Z,6.30
2022-10-14T11:31:45.831Z,1.05
2022-10-14T11:34:33.405Z,3.08
2022-10-14T11:37:29.856Z,0.63
2022-10-14T11:40:02.693Z,0.80
2022-10-14T11:42:54.659Z,0.80
2022-10-14T11:45:35.572Z,0.60
2022-10-14T11:48:32.074Z,0.63
2022-10-14T11:51:10.530Z,0.50
2022-10-14T11:53:47.056Z,0.50
2022-10-14T11:56:34.247Z,0.60
2022-10-14T11:59:32.190Z,0.90
2022-10-14T12:02:17.561Z,0.30
2022-10-14T12:04:50.836Z,0.40
2022-10-14T12:07:26.882Z,1.20
2022-10-14T12:10:00.308Z,1.40
2022-10-14T12:12:29.960Z,0.80
2022-10-14T12:17:43.415Z,0.40
2022-10-14T12:20:29.151Z,0.40
2022-10-14T12:22:58.323Z,2.38
2022-10-14T12:25:36.654Z,0.50
2022-10-14T12:28:04.062Z,2.75
2022-10-14T12:30:36.182Z,1.35
2022-10-14T12:33:18.828Z,1.65
2022-10-14T12:35:59.057Z,0.70
2022-10-14T12:38:29.001Z,1.05
2022-10-14T12:41:34.639Z,1.15
2022-10-14T12:44:04.652Z,1.02
2022-10-14T12:46:31.891Z,1.15
2022-10-14T12:49:00.372Z,0.65
2022-10-14T12:51:27.473Z,2.92
2022-10-14T12:54:26.992Z,0.82
2022-10-14T12:57:26.144Z,1.20
2022-10-14T12:59:55.658Z,0.88
2022-10-14T13:04:55.082Z,1.67
2022-10-14T13:07:48.710Z,1.27
2022-10-14T13:10:47.312Z,0.70
2022-10-14T13:13:38.235Z,1.30
2022-10-14T13:16:06.849Z,1.48
2022-10-14T13:18:42.743Z,0.93
2022-10-14T13:21:32.788Z,1.08
2022-10-14T13:24:04.883Z,0.75
2022-10-14T13:26:48.770Z,0.70
2022-10-14T13:29:31.008Z,2.28
2022-10-14T13:32:25.890Z,2.25
2022-10-14T13:35:38.909Z,0.55
2022-10-14T13:38:15.435Z,0.70
2022-10-14T13:40:46.617Z,3.22
2022-10-14T13:43:38.953Z,3.92
2022-10-14T13:46:12.088Z,2.45
2022-10-14T13:48:43.679Z,1.10
2022-10-14T13:51:24.659Z,1.70
2022-10-14T13:54:16.316Z,1.48
2022-10-14T13:56:43.993Z,0.30
2022-10-14T13:59:43.622Z,0.50
2022-10-14T14:02:19.003Z,0.30
2022-10-14T14:04:52.251Z,0.30
2022-10-14T14:07:47.673Z,0.22
2022-10-14T14:10:12.051Z,0.30
2022-10-14T14:12:43.206Z,0.40
2022-10-14T14:15:26.367Z,0.57
2022-10-14T14:17:54.395Z,0.65
2022-10-14T14:20:24.048Z,0.40
2022-10-14T14:22:53.926Z,1.15
2022-10-14T14:25:50.625Z,0.80
2022-10-14T14:28:13.846Z,2.55
2022-10-14T14:31:04.947Z,0.50
2022-10-14T14:33:35.025Z,0.50
2022-10-14T14:36:05.445Z,2.78
2022-10-14T14:38:35.182Z,0.70
2022-10-14T14:41:03.144Z,0.50
2022-10-14T14:43:36.509Z,1.13
2022-10-14T14:46:05.942Z,0.40
2022-10-14T14:48:34.729Z,0.98
2022-10-14T14:51:02.044Z,0.70
2022-10-14T14:53:29.976Z,0.73
2022-10-14T14:56:09.076Z,2.25
2022-10-14T14:58:50.887Z,0.77
2022-10-14T15:01:26.029Z,1.00
2022-10-14T15:04:13.136Z,0.70
2022-10-14T15:06:51.057Z,0.80
2022-10-14T15:09:46.078Z,0.63
2022-10-14T15:12:19.507Z,0.60
2022-10-14T15:14:54.340Z,1.33
2022-10-14T15:17:39.409Z,1.10
2022-10-14T15:20:30.422Z,1.70
2022-10-14T15:22:57.585Z,1.50
2022-10-14T15:25:31.069Z,1.00
2022-10-14T15:28:00.307Z,2.15
2022-10-14T15:30:34.586Z,1.17
2022-10-14T15:33:04.819Z,1.92
2022-10-14T15:35:34.777Z,1.58
2022-10-14T15:38:01.935Z,0.88
2022-10-14T15:40:31.895Z,1.15
2022-10-14T15:42:59.042Z,1.95
2022-10-14T15:45:26.445Z,2.55
2022-10-14T15:48:01.593Z,1.38
2022-10-14T15:50:28.867Z,1.40
2022-10-14T15:52:56.782Z,1.30
2022-10-14T15:55:26.891Z,2.37
2022-10-14T15:57:53.946Z,2.25
2022-10-14T16:00:23.241Z,1.42
2022-10-14T16:02:58.392Z,1.23
2022-10-14T16:05:28.904Z,1.42
2022-10-14T16:07:57.389Z,3.30
2022-10-14T16:10:28.110Z,6.35
2022-10-14T16:12:58.041Z,1.15
2022-10-14T16:15:40.999Z,5.53
2022-10-14T16:18:08.729Z,1.58
2022-10-14T16:20:35.831Z,1.55
2022-10-14T16:23:04.547Z,1.67
2022-10-14T16:25:39.753Z,1.40
2022-10-14T16:28:10.020Z,1.23
2022-10-14T16:30:40.176Z,1.70
2022-10-14T16:33:07.686Z,3.47
2022-10-14T16:35:34.850Z,4.95
2022-10-14T16:38:01.889Z,0.82
2022-10-14T16:40:31.867Z,2.25
2022-10-14T16:43:05.650Z,3.63
2022-10-14T16:45:32.842Z,5.50
2022-10-14T16:47:59.904Z,6.18
2022-10-14T16:50:26.974Z,4.70
2022-10-14T16:53:12.932Z,7.35
2022-10-14T16:55:39.999Z,4.25
2022-10-14T16:58:07.072Z,16.00
2022-10-14T17:00:34.431Z,10.38
2022-10-14T17:03:02.095Z,4.45
2022-10-14T17:05:29.213Z,6.28
2022-10-14T17:07:56.308Z,2.30
2022-10-14T17:10:24.531Z,3.13
2022-10-14T17:12:53.657Z,2.85
2022-10-14T17:15:20.906Z,7.57
2022-10-14T17:17:47.989Z,10.80
2022-10-14T17:20:15.069Z,4.65
2022-10-14T17:22:42.856Z,7.28
2022-10-14T17:25:10.411Z,3.67
2022-10-14T17:27:37.859Z,1.65
2022-10-14T17:30:05.562Z,5.20
2022-10-14T17:32:32.634Z,7.85
2022-10-14T17:34:59.727Z,10.07
2022-10-14T17:37:26.839Z,2.60
2022-10-14T17:39:53.935Z,3.80
2022-10-14T17:42:21.214Z,8.05
2022-10-14T17:47:17.469Z,3.40
2022-10-14T17:49:44.555Z,3.70
2022-10-14T17:52:12.282Z,27.15
2022-10-14T17:54:39.345Z,69.30
2022-10-14T17:57:06.431Z,54.40
2022-10-14T17:59:34.731Z,18.23
2022-10-14T18:02:03.045Z,4.38
2022-10-14T18:04:31.501Z,3.70
2022-10-14T18:06:58.941Z,3.67
2022-10-14T18:09:26.109Z,2.58
2022-10-14T18:12:08.067Z,3.28
2022-10-14T18:14:35.817Z,8.55
2022-10-14T18:17:02.925Z,15.40
2022-10-14T18:19:30.019Z,7.82
2022-10-14T18:21:57.788Z,9.27
2022-10-14T18:24:25.138Z,6.40
2022-10-14T18:26:53.192Z,3.92
2022-10-14T18:29:20.666Z,7.15
2022-10-14T18:31:49.980Z,11.02
2022-10-14T18:34:17.436Z,29.58
2022-10-14T18:36:44.751Z,22.92
2022-10-14T18:39:13.458Z,9.00
2022-10-14T18:41:41.743Z,14.27
2022-10-14T18:44:08.857Z,9.10
2022-10-14T18:46:37.551Z,4.55
2022-10-14T18:49:06.707Z,4.70
2022-10-14T18:51:38.342Z,7.38
2022-10-14T18:54:10.054Z,10.10
2022-10-14T18:56:40.836Z,7.00
2022-10-14T18:59:11.481Z,10.13
2022-10-14T19:01:39.696Z,3.15
2022-10-14T19:04:09.477Z,5.55
2022-10-14T19:06:36.588Z,10.57
2022-10-14T19:09:04.271Z,5.43
2022-10-14T19:11:33.382Z,4.20
2022-10-14T19:14:03.564Z,2.78
2022-10-14T19:16:36.562Z,4.30
2022-10-14T19:19:11.527Z,3.90
2022-10-14T19:21:39.190Z,3.58
2022-10-14T19:24:08.073Z,9.25
2022-10-14T19:26:37.666Z,6.53
2022-10-14T19:29:09.024Z,3.20
2022-10-14T19:31:39.648Z,9.82
2022-10-14T19:34:08.800Z,3.22
2022-10-14T19:36:38.818Z,4.10
2022-10-14T19:39:08.308Z,4.88
2022-10-14T19:44:10.859Z,8.60
2022-10-14T19:46:38.901Z,10.10
2022-10-14T19:49:06.204Z,7.97
2022-10-14T19:51:34.374Z,4.30
2022-10-14T19:54:02.244Z,3.35
2022-10-14T19:56:30.161Z,2.08
2022-10-14T19:58:58.729Z,2.65
2022-10-14T20:01:28.145Z,1.37
2022-10-14T20:03:56.116Z,1.20
2022-10-14T20:06:23.938Z,1.40
2022-10-14T20:08:51.343Z,1.17
2022-10-14T20:11:22.032Z,1.48
2022-10-14T20:13:49.241Z,1.40
2022-10-14T20:16:17.076Z,0.95
2022-10-14T20:18:44.252Z,1.20
2022-10-14T20:21:13.890Z,1.30
2022-10-14T20:23:41.338Z,1.52
2022-10-14T20:26:18.154Z,1.40
2022-10-14T20:28:45.929Z,0.70
2022-10-14T20:31:15.870Z,1.13
2022-10-14T20:33:43.423Z,2.65
2022-10-14T20:36:14.293Z,2.00
2022-10-14T20:38:42.292Z,2.22
2022-10-14T20:41:18.481Z,7.30
2022-10-14T20:43:46.537Z,3.30
2022-10-14T20:46:13.824Z,4.82
2022-10-14T20:48:41.223Z,2.65
2022-10-14T20:51:11.716Z,0.95
2022-10-14T20:53:38.812Z,0.85
2022-10-14T20:56:11.192Z,1.63
2022-10-14T20:58:38.366Z,2.45
2022-10-14T21:01:13.680Z,3.72
2022-10-14T21:03:42.371Z,3.80
2022-10-14T21:06:12.440Z,2.03
2022-10-14T21:08:40.152Z,1.55
2022-10-14T21:11:14.048Z,0.80
2022-10-14T21:13:45.141Z,2.15
2022-10-14T21:18:39.981Z,1.15
2022-10-14T21:21:07.537Z,0.57
2022-10-14T21:23:35.075Z,1.30
2022-10-14T21:26:02.197Z,2.60
2022-10-14T21:28:29.309Z,1.88
2022-10-14T21:30:56.458Z,1.45
2022-10-14T21:33:23.533Z,1.50
2022-10-14T21:35:50.585Z,0.60
2022-10-14T21:38:17.677Z,2.35
2022-10-14T21:40:44.776Z,1.20
2022-10-14T21:43:11.801Z,3.17
2022-10-14T21:45:38.923Z,1.00
2022-10-14T21:48:05.995Z,3.97
2022-10-14T21:50:33.128Z,16.33
2022-10-14T21:53:00.192Z,28.70
2022-10-14T21:55:27.312Z,9.35
2022-10-14T21:57:54.381Z,4.45
2022-10-14T22:00:21.524Z,1.48
2022-10-14T22:02:52.902Z,0.50
2022-10-14T22:05:20.402Z,1.10
2022-10-14T22:07:47.838Z,0.63
2022-10-14T22:10:33.595Z,2.40
2022-10-14T22:13:01.297Z,0.60
2022-10-14T22:15:28.369Z,0.40
2022-10-14T22:17:55.479Z,0.57
2022-10-14T22:20:22.518Z,2.78
2022-10-14T22:22:49.961Z,9.82
2022-10-14T22:25:17.083Z,3.60
2022-10-14T22:27:44.199Z,32.55
2022-10-14T22:30:12.143Z,18.15
2022-10-14T22:32:39.328Z,32.30
2022-10-14T22:35:07.024Z,66.53
2022-10-14T22:37:34.371Z,70.97
2022-10-14T22:40:01.486Z,1.20
2022-10-14T22:44:56.589Z,0.73
2022-10-14T22:47:23.952Z,0.80
2022-10-14T22:49:51.270Z,0.60
2022-10-14T22:52:18.325Z,2.47
2022-10-14T22:54:47.050Z,0.40
2022-10-14T22:57:14.177Z,0.65
2022-10-14T22:59:41.554Z,0.63
2022-10-14T23:02:08.699Z,0.63
2022-10-14T23:04:35.742Z,1.27
2022-10-14T23:07:06.853Z,0.57
2022-10-14T23:12:02.218Z,4.88
2022-10-14T23:14:30.528Z,19.48
2022-10-14T23:16:57.577Z,7.43
2022-10-14T23:19:24.698Z,19.02
2022-10-14T23:21:51.753Z,24.08
2022-10-14T23:24:18.871Z,6.22
2022-10-14T23:26:45.984Z,37.97
2022-10-14T23:29:13.044Z,46.55
2022-10-14T23:31:41.121Z,10.30
2022-10-14T23:34:12.694Z,0.40
2022-10-14T23:36:40.496Z,1.27
2022-10-14T23:39:07.980Z,0.43
2022-10-14T23:41:35.125Z,0.38
2022-10-14T23:44:02.975Z,1.13
2022-10-14T23:46:30.166Z,1.65
2022-10-14T23:49:06.986Z,0.90
2022-10-14T23:51:35.389Z,1.00
2022-10-14T23:54:02.445Z,0.30
2022-10-14T23:56:29.554Z,0.30
2022-10-14T23:58:56.651Z,0.68
